createdAt,value
2024-05-09T00:00:36.484Z,50.51
2024-05-09T00:03:07.529Z,50.25
2024-05-09T00:05:34.871Z,50.33
2024-05-09T00:08:02.176Z,50.26
2024-05-09T00:10:35.960Z,50.36
2024-05-09T00:13:06.171Z,50.36
2024-05-09T00:15:33.814Z,50.55
2024-05-09T00:18:01.746Z,50.78
2024-05-09T00:20:37.348Z,50.96
2024-05-09T00:23:09.724Z,51.21
2024-05-09T00:25:37.532Z,51.50
2024-05-09T00:28:05.470Z,51.58
2024-05-09T00:30:35.595Z,51.86
2024-05-09T00:33:05.885Z,52.15
2024-05-09T00:35:34.237Z,52.57
2024-05-09T00:38:01.578Z,52.51
2024-05-09T00:40:40.676Z,52.55
2024-05-09T00:43:11.151Z,52.86
2024-05-09T00:45:38.473Z,52.98
2024-05-09T00:48:07.056Z,53.13
2024-05-09T00:50:37.363Z,53.14
2024-05-09T00:53:05.787Z,53.29
2024-05-09T00:55:33.935Z,53.71
2024-05-09T00:58:01.619Z,53.88
2024-05-09T01:00:35.960Z,53.92
2024-05-09T01:03:08.224Z,53.91
2024-05-09T01:05:38.372Z,54.35
2024-05-09T01:08:06.212Z,54.71
2024-05-09T01:10:35.409Z,55.27
2024-05-09T01:13:04.209Z,55.36
2024-05-09T01:15:31.576Z,55.48
2024-05-09T01:18:03.678Z,55.62
2024-05-09T01:20:40.151Z,55.55
2024-05-09T01:23:10.613Z,55.49
2024-05-09T01:25:37.946Z,55.63
2024-05-09T01:28:05.785Z,55.87
2024-05-09T01:30:36.197Z,55.53
2024-05-09T01:33:07.284Z,55.60
2024-05-09T01:35:35.984Z,55.58
2024-05-09T01:38:03.830Z,55.57
2024-05-09T01:40:38.301Z,55.73
2024-05-09T01:43:07.847Z,56.08
2024-05-09T01:45:35.685Z,56.19
2024-05-09T01:48:03.456Z,56.12
2024-05-09T01:53:01.406Z,56.24
2024-05-09T01:55:28.579Z,56.28
2024-05-09T01:57:55.619Z,56.49
2024-05-09T02:00:34.509Z,56.67
2024-05-09T02:03:09.262Z,56.76
2024-05-09T02:05:37.041Z,57.00
2024-05-09T02:08:06.035Z,56.90
2024-05-09T02:10:33.634Z,57.26
2024-05-09T02:13:00.907Z,57.34
2024-05-09T02:15:28.348Z,57.38
2024-05-09T02:17:56.046Z,57.57
2024-05-09T02:20:30.534Z,57.38
2024-05-09T02:23:05.565Z,57.47
2024-05-09T02:25:32.799Z,57.44
2024-05-09T02:27:59.913Z,57.62
2024-05-09T02:30:37.682Z,57.83
2024-05-09T02:33:09.865Z,57.87
2024-05-09T02:35:38.637Z,57.53
2024-05-09T02:38:05.959Z,57.47
2024-05-09T02:40:37.162Z,57.58
2024-05-09T02:43:07.185Z,57.49
2024-05-09T02:45:34.643Z,57.48
2024-05-09T02:48:02.197Z,57.22
2024-05-09T02:50:36.969Z,57.11
2024-05-09T02:53:07.843Z,56.92
2024-05-09T02:55:35.234Z,56.86
2024-05-09T02:58:02.269Z,56.68
2024-05-09T03:00:38.089Z,56.36
2024-05-09T03:03:09.581Z,56.28
2024-05-09T03:05:38.671Z,56.09
2024-05-09T03:08:06.590Z,55.84
2024-05-09T03:10:36.621Z,55.52
2024-05-09T03:13:08.545Z,55.02
2024-05-09T03:15:35.760Z,54.03
2024-05-09T03:18:04.259Z,53.82
2024-05-09T03:20:34.921Z,53.86
2024-05-09T03:23:04.713Z,53.76
2024-05-09T03:25:32.365Z,53.17
2024-05-09T03:27:59.683Z,53.01
2024-05-09T03:30:36.099Z,53.15
2024-05-09T03:33:13.496Z,52.68
2024-05-09T03:35:42.447Z,52.58
2024-05-09T03:38:09.776Z,52.61
2024-05-09T03:40:44.107Z,52.46
2024-05-09T03:43:12.611Z,52.12
2024-05-09T03:45:39.647Z,51.89
2024-05-09T03:48:07.804Z,51.60
2024-05-09T03:50:36.302Z,51.20
2024-05-09T03:53:04.542Z,50.91
2024-05-09T03:55:32.247Z,50.81
2024-05-09T03:57:59.796Z,50.62
2024-05-09T04:00:35.150Z,49.95
2024-05-09T04:03:07.713Z,49.44
2024-05-09T04:05:38.767Z,49.26
2024-05-09T04:08:06.377Z,48.92
2024-05-09T04:10:34.919Z,48.40
2024-05-09T04:13:03.273Z,48.37
2024-05-09T04:15:30.995Z,47.88
2024-05-09T04:17:58.389Z,46.80
2024-05-09T04:20:35.954Z,46.76
2024-05-09T04:23:07.303Z,46.12
2024-05-09T04:25:35.110Z,45.62
2024-05-09T04:28:02.467Z,45.59
2024-05-09T04:30:37.324Z,45.36
2024-05-09T04:33:09.128Z,44.93
2024-05-09T04:35:38.322Z,44.62
2024-05-09T04:38:06.241Z,43.67
2024-05-09T04:40:36.346Z,43.25
2024-05-09T04:43:05.580Z,42.48
2024-05-09T04:45:32.973Z,41.75
2024-05-09T04:48:00.559Z,40.78
2024-05-09T04:50:36.428Z,40.20
2024-05-09T04:53:07.625Z,40.13
2024-05-09T04:55:36.134Z,39.65
2024-05-09T04:58:04.911Z,38.96
2024-05-09T05:00:36.832Z,37.58
2024-05-09T05:03:12.976Z,37.26
2024-05-09T05:05:43.100Z,37.60
2024-05-09T05:08:15.137Z,37.07
2024-05-09T05:10:43.056Z,35.93
2024-05-09T05:13:22.365Z,35.49
2024-05-09T05:15:55.094Z,35.64
2024-05-09T05:18:22.873Z,35.26
2024-05-09T05:20:50.774Z,33.95
2024-05-09T05:23:19.100Z,33.39
2024-05-09T05:25:47.461Z,33.29
2024-05-09T05:28:17.638Z,33.49
2024-05-09T05:30:44.885Z,33.15
2024-05-09T05:33:13.312Z,32.71
2024-05-09T05:35:40.966Z,32.00
2024-05-09T05:38:08.221Z,32.06
2024-05-09T05:40:38.202Z,31.85
2024-05-09T05:43:09.941Z,31.62
2024-05-09T05:45:38.276Z,31.63
2024-05-09T05:48:11.712Z,31.31
2024-05-09T05:50:48.511Z,30.67
2024-05-09T05:53:15.893Z,30.78
2024-05-09T05:55:43.074Z,30.78
2024-05-09T05:58:11.013Z,30.50
2024-05-09T06:00:40.517Z,30.28
2024-05-09T06:03:08.844Z,30.04
2024-05-09T06:05:39.142Z,29.65
2024-05-09T06:08:06.955Z,28.86
2024-05-09T06:10:39.179Z,28.30
2024-05-09T06:13:13.223Z,27.46
2024-05-09T06:15:41.359Z,26.48
2024-05-09T06:18:09.681Z,25.95
2024-05-09T06:20:39.065Z,25.81
2024-05-09T06:23:06.979Z,24.97
2024-05-09T06:25:35.161Z,24.30
2024-05-09T06:28:02.736Z,24.17
2024-05-09T06:30:38.374Z,23.55
2024-05-09T06:33:09.751Z,23.14
2024-05-09T06:35:38.313Z,22.40
2024-05-09T06:38:05.893Z,22.46
2024-05-09T06:40:37.928Z,21.93
2024-05-09T06:43:14.510Z,21.94
2024-05-09T06:45:42.407Z,21.70
2024-05-09T06:48:11.237Z,21.81
2024-05-09T06:50:39.824Z,21.59
2024-05-09T06:53:08.064Z,21.53
2024-05-09T06:55:36.241Z,21.02
2024-05-09T06:58:05.401Z,20.45
2024-05-09T07:00:38.845Z,20.56
2024-05-09T07:03:08.564Z,20.13
2024-05-09T07:05:35.972Z,19.25
2024-05-09T07:08:04.386Z,18.80
2024-05-09T07:10:35.194Z,18.73
2024-05-09T07:13:13.324Z,18.68
2024-05-09T07:15:41.286Z,18.18
2024-05-09T07:18:12.865Z,17.74
2024-05-09T07:20:40.679Z,17.69
2024-05-09T07:23:11.650Z,18.06
2024-05-09T07:25:39.511Z,17.71
2024-05-09T07:28:16.894Z,17.60
2024-05-09T07:30:44.477Z,17.73
2024-05-09T07:33:22.655Z,17.39
2024-05-09T07:35:51.414Z,17.07
2024-05-09T07:38:18.623Z,16.92
2024-05-09T07:40:46.056Z,16.41
2024-05-09T07:43:15.218Z,16.67
2024-05-09T07:45:50.703Z,16.41
2024-05-09T07:52:38.008Z,16.30
2024-05-09T07:53:46.339Z,16.46
2024-05-09T07:56:17.760Z,16.03
2024-05-09T07:58:45.183Z,16.46
2024-05-09T08:01:12.337Z,16.37
2024-05-09T08:03:39.605Z,15.75
2024-05-09T08:06:07.220Z,15.32
2024-05-09T08:08:34.450Z,15.86
2024-05-09T08:11:02.228Z,16.03
2024-05-09T08:13:29.392Z,16.01
2024-05-09T08:15:56.557Z,15.86
2024-05-09T08:18:23.777Z,15.79
2024-05-09T08:20:52.171Z,15.42
2024-05-09T08:23:19.305Z,15.18
2024-05-09T08:25:47.550Z,15.05
2024-05-09T08:28:14.848Z,14.84
2024-05-09T08:30:43.267Z,14.46
2024-05-09T08:33:10.206Z,14.19
2024-05-09T08:35:39.839Z,14.41
2024-05-09T08:38:07.941Z,14.49
2024-05-09T08:40:37.211Z,14.38
2024-05-09T08:43:07.419Z,15.06
2024-05-09T08:45:37.710Z,15.15
2024-05-09T08:48:07.676Z,15.04
2024-05-09T08:50:39.280Z,15.26
2024-05-09T08:53:08.046Z,15.50
2024-05-09T08:55:39.429Z,15.30
2024-05-09T08:58:13.339Z,15.23
2024-05-09T09:00:41.899Z,15.44
2024-05-09T09:03:09.433Z,15.12
2024-05-09T09:05:38.524Z,15.10
2024-05-09T09:08:07.019Z,14.82
2024-05-09T09:10:34.204Z,14.25
2024-05-09T09:13:03.862Z,14.22
2024-05-09T09:15:31.231Z,14.51
2024-05-09T09:17:59.355Z,14.88
2024-05-09T09:20:34.072Z,14.72
2024-05-09T09:23:04.595Z,14.76
2024-05-09T09:25:32.171Z,14.42
2024-05-09T09:27:59.528Z,14.36
2024-05-09T09:30:34.959Z,14.31
2024-05-09T09:33:13.814Z,15.05
2024-05-09T09:35:42.372Z,15.00
2024-05-09T09:38:10.619Z,14.79
2024-05-09T09:40:46.612Z,14.51
2024-05-09T09:43:20.666Z,14.76
2024-05-09T09:45:53.468Z,15.10
2024-05-09T09:48:21.401Z,14.47
2024-05-09T09:50:48.625Z,15.18
2024-05-09T09:53:15.778Z,15.41
2024-05-09T09:55:43.083Z,15.73
2024-05-09T09:58:13.389Z,15.67
2024-05-09T10:00:42.153Z,15.75
2024-05-09T10:03:09.518Z,15.52
2024-05-09T10:05:36.909Z,15.80
2024-05-09T10:08:06.497Z,15.79
2024-05-09T10:10:34.659Z,16.33
2024-05-09T10:13:08.856Z,16.92
2024-05-09T10:15:47.421Z,17.42
2024-05-09T10:18:14.833Z,17.26
2024-05-09T10:20:43.605Z,17.91
2024-05-09T10:23:27.137Z,18.40
2024-05-09T10:25:58.531Z,18.91
2024-05-09T10:28:29.642Z,18.88
2024-05-09T10:31:06.660Z,18.45
2024-05-09T10:33:37.934Z,18.60
2024-05-09T10:36:22.135Z,18.95
2024-05-09T10:38:50.340Z,18.86
2024-05-09T10:41:19.611Z,18.95
2024-05-09T10:43:47.058Z,19.01
2024-05-09T10:46:15.049Z,19.22
2024-05-09T10:48:42.953Z,19.74
2024-05-09T10:51:10.760Z,19.44
2024-05-09T10:53:42.321Z,19.33
2024-05-09T10:56:10.269Z,19.43
2024-05-09T10:58:37.417Z,19.70
2024-05-09T11:01:07.009Z,20.06
2024-05-09T11:03:35.517Z,20.02
2024-05-09T11:06:03.354Z,20.11
2024-05-09T11:08:31.585Z,19.63
2024-05-09T11:11:02.383Z,19.72
2024-05-09T11:13:30.826Z,19.90
2024-05-09T11:15:59.582Z,19.72
2024-05-09T11:18:34.817Z,19.75
2024-05-09T11:21:11.154Z,20.00
2024-05-09T11:23:38.509Z,20.50
2024-05-09T11:26:05.646Z,20.86
2024-05-09T11:28:34.388Z,21.21
2024-05-09T11:31:07.024Z,21.02
2024-05-09T11:33:45.050Z,20.87
2024-05-09T11:36:12.232Z,20.73
2024-05-09T11:38:40.076Z,20.89
2024-05-09T11:41:07.416Z,21.19
2024-05-09T11:43:34.608Z,20.89
2024-05-09T11:46:02.512Z,21.19
2024-05-09T11:48:30.877Z,20.51
2024-05-09T11:50:58.234Z,21.25
2024-05-09T11:53:25.331Z,22.11
2024-05-09T11:55:52.530Z,21.72
2024-05-09T11:58:20.994Z,21.60
2024-05-09T12:00:48.612Z,21.38
2024-05-09T12:03:15.984Z,21.81
2024-05-09T12:05:43.306Z,22.55
2024-05-09T12:08:10.556Z,22.85
2024-05-09T12:10:38.211Z,22.66
2024-05-09T12:13:07.223Z,22.68
2024-05-09T12:15:36.611Z,22.90
2024-05-09T12:18:06.041Z,23.35
2024-05-09T12:20:37.595Z,23.22
2024-05-09T12:23:07.863Z,22.71
2024-05-09T12:25:35.853Z,22.96
2024-05-09T12:28:03.538Z,23.29
2024-05-09T12:30:37.247Z,22.87
2024-05-09T12:33:08.465Z,22.39
2024-05-09T12:35:36.082Z,22.99
2024-05-09T12:38:03.559Z,23.83
2024-05-09T12:40:35.879Z,23.81
2024-05-09T12:43:06.952Z,23.04
2024-05-09T12:45:34.579Z,23.02
2024-05-09T12:48:03.834Z,22.90
2024-05-09T12:50:34.183Z,23.79
2024-05-09T12:53:03.655Z,24.15
2024-05-09T12:55:40.355Z,24.08
2024-05-09T12:58:16.681Z,24.50
2024-05-09T13:00:44.998Z,24.18
2024-05-09T13:03:12.704Z,24.55
2024-05-09T13:05:46.394Z,24.75
2024-05-09T13:08:13.502Z,24.68
2024-05-09T13:10:40.907Z,25.08
2024-05-09T13:13:11.518Z,25.46
2024-05-09T13:15:38.816Z,25.29
2024-05-09T13:18:06.277Z,25.47
2024-05-09T13:20:36.111Z,25.42
2024-05-09T13:23:05.923Z,25.54
2024-05-09T13:25:33.917Z,25.47
2024-05-09T13:28:01.069Z,25.55
2024-05-09T13:30:35.774Z,25.67
2024-05-09T13:33:08.218Z,26.02
2024-05-09T13:35:36.148Z,25.83
2024-05-09T13:38:04.716Z,25.76
2024-05-09T13:40:35.002Z,25.67
2024-05-09T13:43:04.536Z,25.40
2024-05-09T13:45:32.941Z,25.10
2024-05-09T13:48:01.474Z,24.96
2024-05-09T13:50:35.708Z,25.39
2024-05-09T13:53:06.191Z,25.30
2024-05-09T13:55:36.453Z,25.21
2024-05-09T13:58:03.922Z,25.39
2024-05-09T14:00:42.470Z,25.61
2024-05-09T14:03:15.003Z,25.28
2024-05-09T14:05:42.790Z,25.55
2024-05-09T14:08:10.014Z,25.20
2024-05-09T14:10:42.968Z,25.31
2024-05-09T14:13:10.020Z,25.80
2024-05-09T14:15:37.375Z,25.79
2024-05-09T14:18:05.084Z,25.56
2024-05-09T14:20:32.776Z,25.73
2024-05-09T14:23:00.573Z,25.75
2024-05-09T14:25:29.247Z,26.15
2024-05-09T14:27:59.682Z,26.20
2024-05-09T14:30:34.665Z,26.18
2024-05-09T14:33:06.082Z,25.98
2024-05-09T14:35:33.901Z,26.02
2024-05-09T14:38:01.103Z,25.87
2024-05-09T14:40:38.838Z,26.04
2024-05-09T14:43:13.872Z,26.51
2024-05-09T14:45:41.820Z,26.48
2024-05-09T14:48:09.872Z,26.47
2024-05-09T14:50:39.434Z,26.30
2024-05-09T14:53:11.585Z,26.53
2024-05-09T14:55:40.190Z,26.50
2024-05-09T14:58:09.353Z,26.54
2024-05-09T15:00:39.450Z,26.63
2024-05-09T15:03:08.825Z,26.39
2024-05-09T15:05:36.014Z,26.53
2024-05-09T15:08:05.709Z,26.93
2024-05-09T15:10:35.655Z,27.04
2024-05-09T15:13:04.867Z,27.13
2024-05-09T15:15:32.200Z,26.80
2024-05-09T15:17:59.928Z,26.80
2024-05-09T15:20:33.924Z,27.00
2024-05-09T15:23:04.458Z,27.01
2024-05-09T15:25:35.951Z,27.28
2024-05-09T15:28:06.658Z,27.25
2024-05-09T15:30:34.847Z,27.23
2024-05-09T15:33:06.221Z,27.70
2024-05-09T15:35:34.904Z,27.67
2024-05-09T15:38:05.068Z,27.71
2024-05-09T15:40:38.906Z,28.11
2024-05-09T15:43:08.985Z,28.24
2024-05-09T15:45:37.455Z,27.89
2024-05-09T15:48:05.241Z,27.73
2024-05-09T15:50:38.785Z,27.55
2024-05-09T15:53:09.904Z,27.51
2024-05-09T15:55:38.156Z,27.51
2024-05-09T15:58:05.712Z,27.87
2024-05-09T16:00:38.734Z,28.23
2024-05-09T16:03:09.980Z,28.43
2024-05-09T16:05:37.737Z,28.58
2024-05-09T16:08:06.034Z,28.44
2024-05-09T16:10:34.774Z,28.44
2024-05-09T16:13:03.341Z,28.40
2024-05-09T16:15:31.334Z,28.66
2024-05-09T16:17:59.562Z,28.70
2024-05-09T16:20:34.965Z,28.97
2024-05-09T16:23:07.355Z,29.28
2024-05-09T16:25:34.564Z,29.58
2024-05-09T16:28:03.690Z,29.86
2024-05-09T16:30:35.294Z,29.56
2024-05-09T16:33:04.848Z,29.51
2024-05-09T16:35:33.827Z,29.63
2024-05-09T16:38:01.909Z,29.84
2024-05-09T16:40:36.999Z,30.09
2024-05-09T16:43:11.209Z,30.01
2024-05-09T16:45:45.504Z,29.97
2024-05-09T16:48:13.651Z,29.83
2024-05-09T16:50:40.710Z,29.76
2024-05-09T16:53:08.076Z,29.74
2024-05-09T16:55:35.718Z,29.60
2024-05-09T16:58:03.836Z,29.94
2024-05-09T17:00:39.728Z,29.98
2024-05-09T17:03:12.594Z,30.14
2024-05-09T17:05:40.959Z,30.49
2024-05-09T17:08:08.390Z,30.81
2024-05-09T17:10:35.961Z,31.21
2024-05-09T17:13:04.784Z,31.42
2024-05-09T17:15:33.529Z,31.45
2024-05-09T17:18:00.890Z,31.38
2024-05-09T17:20:33.248Z,31.32
2024-05-09T17:23:03.891Z,31.70
2024-05-09T17:25:31.175Z,31.97
2024-05-09T17:28:04.376Z,32.26
2024-05-09T17:30:35.975Z,32.14
2024-05-09T17:33:05.579Z,31.97
2024-05-09T17:35:32.897Z,32.04
2024-05-09T17:38:01.048Z,32.13
2024-05-09T17:40:33.485Z,32.40
2024-05-09T17:43:04.706Z,32.86
2024-05-09T17:45:32.639Z,33.21
2024-05-09T17:48:00.443Z,33.34
2024-05-09T17:50:34.389Z,33.70
2024-05-09T17:53:05.088Z,33.60
2024-05-09T17:55:32.560Z,33.70
2024-05-09T17:57:59.835Z,33.53
2024-05-09T18:02:56.874Z,33.37
2024-05-09T18:05:24.088Z,33.29
2024-05-09T18:07:51.439Z,33.25
2024-05-09T18:10:25.431Z,33.27
2024-05-09T18:12:57.172Z,33.24
2024-05-09T18:15:24.355Z,33.10
2024-05-09T18:17:51.327Z,32.85
2024-05-09T18:20:28.397Z,32.98
2024-05-09T18:23:04.924Z,32.93
2024-05-09T18:25:31.986Z,33.12
2024-05-09T18:27:59.048Z,32.97
2024-05-09T18:30:32.315Z,32.88
2024-05-09T18:33:02.614Z,32.89
2024-05-09T18:35:30.010Z,32.93
2024-05-09T18:37:57.159Z,33.08
2024-05-09T18:40:32.541Z,32.95
2024-05-09T18:43:03.798Z,32.69
2024-05-09T18:45:31.180Z,32.72
2024-05-09T18:47:58.687Z,32.74
2024-05-09T18:50:33.700Z,32.72
2024-05-09T18:53:08.121Z,32.82
2024-05-09T18:55:35.486Z,32.97
2024-05-09T18:58:06.052Z,32.93
2024-05-09T19:00:36.977Z,32.84
2024-05-09T19:03:07.791Z,32.89
2024-05-09T19:05:36.243Z,33.03
2024-05-09T19:08:04.252Z,33.14
2024-05-09T19:10:34.641Z,33.07
2024-05-09T19:13:07.294Z,33.23
2024-05-09T19:15:38.795Z,33.20
2024-05-09T19:18:06.299Z,33.13
2024-05-09T19:20:35.514Z,33.28
2024-05-09T19:23:05.106Z,33.37
2024-05-09T19:25:32.490Z,33.55
2024-05-09T19:28:00.006Z,33.56
2024-05-09T19:30:36.505Z,33.73
2024-05-09T19:33:08.080Z,33.95
2024-05-09T19:35:35.472Z,34.18
2024-05-09T19:38:02.560Z,34.30
2024-05-09T19:40:32.400Z,34.56
2024-05-09T19:43:02.008Z,34.65
2024-05-09T19:45:30.122Z,35.33
2024-05-09T19:47:57.481Z,36.13
2024-05-09T19:50:32.460Z,36.31
2024-05-09T19:53:07.880Z,36.11
2024-05-09T19:55:35.024Z,36.56
2024-05-09T19:58:04.776Z,37.04
2024-05-09T20:00:36.277Z,37.25
2024-05-09T20:03:05.664Z,36.76
2024-05-09T20:05:33.449Z,35.91
2024-05-09T20:08:00.796Z,34.86
2024-05-09T20:10:32.409Z,34.04
2024-05-09T20:13:02.118Z,34.63
2024-05-09T20:15:30.654Z,33.72
2024-05-09T20:17:57.627Z,33.88
2024-05-09T20:20:33.610Z,34.95
2024-05-09T20:23:05.804Z,35.45
2024-05-09T20:25:32.725Z,35.68
2024-05-09T20:27:59.854Z,36.19
2024-05-09T20:30:32.069Z,35.79
2024-05-09T20:33:01.464Z,35.24
2024-05-09T20:35:31.198Z,35.01
2024-05-09T20:37:58.254Z,33.51
2024-05-09T20:40:31.485Z,33.09
2024-05-09T20:43:02.222Z,33.96
2024-05-09T20:45:29.739Z,34.42
2024-05-09T20:47:56.903Z,35.33
2024-05-09T20:50:32.771Z,35.64
2024-05-09T20:53:05.532Z,34.94
2024-05-09T20:55:32.991Z,34.68
2024-05-09T20:58:00.188Z,34.85
2024-05-09T21:00:35.220Z,35.24
2024-05-09T21:03:07.407Z,35.54
2024-05-09T21:05:35.439Z,36.00
2024-05-09T21:08:03.181Z,36.13
2024-05-09T21:10:33.268Z,36.54
2024-05-09T21:13:02.235Z,36.89
2024-05-09T21:15:30.705Z,37.26
2024-05-09T21:17:58.237Z,37.73
2024-05-09T21:20:31.118Z,38.13
2024-05-09T21:23:00.386Z,38.31
2024-05-09T21:25:27.639Z,38.49
2024-05-09T21:27:54.980Z,38.73
2024-05-09T21:30:32.479Z,38.94
2024-05-09T21:33:08.487Z,38.94
2024-05-09T21:35:36.010Z,38.97
2024-05-09T21:38:03.879Z,38.93
2024-05-09T21:40:34.700Z,39.04
2024-05-09T21:43:04.820Z,39.07
2024-05-09T21:45:32.714Z,38.92
2024-05-09T21:47:59.974Z,38.84
2024-05-09T21:50:35.853Z,39.31
2024-05-09T21:53:07.144Z,39.17
2024-05-09T21:55:34.773Z,39.15
2024-05-09T21:58:02.101Z,39.32
2024-05-09T22:00:36.020Z,39.41
2024-05-09T22:03:09.462Z,39.00
2024-05-09T22:05:38.494Z,38.97
2024-05-09T22:08:06.440Z,38.82
2024-05-09T22:10:35.771Z,38.87
2024-05-09T22:13:05.744Z,38.95
2024-05-09T22:15:38.480Z,39.45
2024-05-09T22:18:07.161Z,39.58
2024-05-09T22:20:38.028Z,40.37
2024-05-09T22:23:07.544Z,40.48
2024-05-09T22:25:35.440Z,41.04
2024-05-09T22:28:03.082Z,40.71
2024-05-09T22:30:36.232Z,40.52
2024-05-09T22:33:08.029Z,40.76
2024-05-09T22:35:35.267Z,40.69
2024-05-09T22:38:02.855Z,40.97
2024-05-09T22:40:38.978Z,41.18
2024-05-09T22:43:17.695Z,41.68
2024-05-09T22:45:46.498Z,41.80
2024-05-09T22:48:13.799Z,41.64
2024-05-09T22:50:41.087Z,41.74
2024-05-09T22:53:08.362Z,41.62
2024-05-09T22:55:35.528Z,41.69
2024-05-09T22:58:02.605Z,41.98
2024-05-09T23:00:32.312Z,42.11
2024-05-09T23:03:00.569Z,42.08
2024-05-09T23:05:28.036Z,42.23
2024-05-09T23:07:55.205Z,42.20
2024-05-09T23:10:30.825Z,42.13
2024-05-09T23:13:02.288Z,42.13
2024-05-09T23:15:29.636Z,42.36
2024-05-09T23:17:56.638Z,42.67
2024-05-09T23:20:33.396Z,42.58
2024-05-09T23:23:08.017Z,43.21
2024-05-09T23:25:36.359Z,42.76
2024-05-09T23:28:03.779Z,43.01
2024-05-09T23:30:37.484Z,43.20
2024-05-09T23:33:10.857Z,43.48
2024-05-09T23:35:40.178Z,43.58
2024-05-09T23:38:07.146Z,43.95
2024-05-09T23:40:39.478Z,43.88
2024-05-09T23:43:09.877Z,43.99
2024-05-09T23:45:37.320Z,44.01
2024-05-09T23:48:05.738Z,44.18
2024-05-09T23:50:36.340Z,44.23
2024-05-09T23:53:06.178Z,44.36
2024-05-09T23:55:34.267Z,44.61
2024-05-09T23:58:01.238Z,44.43
